Terminal Aerodrome Forecast
Issued by NWS

Home | Current Version | Previous Version | Graphics & Text | Print | Product List | Glossary On
Versions: 1 2 3 4 5 6 7 8 9 10 11 12 13 14 15 16 17 18 19
000
FTUS43 KABR 101728
TAFATY
TAF
KATY 101728Z 1018/1118 30010KT P6SM FEW200
     FM110200 25007KT P6SM OVC130
     FM111000 29015G23KT P6SM BKN120
     FM111200 31017G24KT P6SM VCSH OVC010=

USA.gov is the U.S. government's official web portal to all federal, state and local government web resources and services.